Авиационная погода в Зонгулдаке

Регион: 
Погода METAR: 
LTAS 271250Z VRB01KT 6000 SCT030 BKN080 16/15 Q1010
Время наблюдения
2021-11-27T12:50:00Z
Температура C
16.0
Точка росы
15.0
Направление ветра
0
Скорость ветра (узлы)
1
Метео видимость
3.73
Явления погоды
Условия полета
MVFR